sensor_id;sensor_type;location;lat;lon;timestamp;pressure;altitude;pressure_sealevel;temperature;humidity
55755;BME280;41674;52.290;-1.474;2022-10-31T00:34:59;100904.98;;;11.14;100.00
55755;BME280;41674;52.290;-1.474;2022-10-31T01:17:22;100904.51;;;11.35;100.00
55755;BME280;41674;52.290;-1.474;2022-10-31T01:19:51;100899.43;;;11.80;100.00
55755;BME280;41674;52.290;-1.474;2022-10-31T01:22:20;100900.70;;;12.11;100.00
55755;BME280;41674;52.290;-1.474;2022-10-31T01:39:53;100892.37;;;12.13;100.00
55755;BME280;41674;52.290;-1.474;2022-10-31T01:42:20;100889.09;;;12.68;96.72
55755;BME280;41674;52.290;-1.474;2022-10-31T01:44:58;100886.49;;;13.19;96.04
55755;BME280;41674;52.290;-1.474;2022-10-31T01:47:22;100893.25;;;12.22;98.57
55755;BME280;41674;52.290;-1.474;2022-10-31T01:54:51;100900.03;;;11.56;100.00
55755;BME280;41674;52.290;-1.474;2022-10-31T01:57:20;100894.23;;;12.57;96.57
55755;BME280;41674;52.290;-1.474;2022-10-31T01:59:52;100888.51;;;13.37;91.54
55755;BME280;41674;52.290;-1.474;2022-10-31T02:02:19;100892.57;;;12.89;94.67
55755;BME280;41674;52.290;-1.474;2022-10-31T02:42:09;100875.90;;;13.07;91.89
55755;BME280;41674;52.290;-1.474;2022-10-31T02:44:45;100876.53;;;13.32;89.20
55755;BME280;41674;52.290;-1.474;2022-10-31T02:47:08;100876.47;;;12.55;94.82
55755;BME280;41674;52.290;-1.474;2022-10-31T02:57:14;100881.83;;;11.66;99.31
55755;BME280;41674;52.290;-1.474;2022-10-31T02:59:39;100880.12;;;11.65;98.71
55755;BME280;41674;52.290;-1.474;2022-10-31T03:04:58;100878.47;;;11.40;100.00
55755;BME280;41674;52.290;-1.474;2022-10-31T03:27:02;100851.16;;;11.83;97.93
55755;BME280;41674;52.290;-1.474;2022-10-31T03:29:32;100850.85;;;11.75;98.99
55755;BME280;41674;52.290;-1.474;2022-10-31T03:31:59;100850.02;;;11.70;98.26
55755;BME280;41674;52.290;-1.474;2022-10-31T03:34:30;100846.98;;;12.28;95.14
55755;BME280;41674;52.290;-1.474;2022-10-31T03:37:03;100844.51;;;12.47;92.44
55755;BME280;41674;52.290;-1.474;2022-10-31T03:39:30;100839.45;;;12.65;93.20
55755;BME280;41674;52.290;-1.474;2022-10-31T03:42:05;100841.11;;;13.20;90.48
55755;BME280;41674;52.290;-1.474;2022-10-31T03:44:31;100844.12;;;12.77;89.64
55755;BME280;41674;52.290;-1.474;2022-10-31T03:46:58;100846.09;;;12.86;89.98
55755;BME280;41674;52.290;-1.474;2022-10-31T03:49:27;100851.66;;;12.47;91.57
55755;BME280;41674;52.290;-1.474;2022-10-31T03:51:58;100853.05;;;13.04;89.08
55755;BME280;41674;52.290;-1.474;2022-10-31T03:54:30;100859.94;;;13.04;89.72
55755;BME280;41674;52.290;-1.474;2022-10-31T03:56:59;100857.27;;;13.54;86.89
55755;BME280;41674;52.290;-1.474;2022-10-31T03:59:26;100856.92;;;13.82;85.35
55755;BME280;41674;52.290;-1.474;2022-10-31T04:02:00;100858.44;;;13.86;84.89
55755;BME280;41674;52.290;-1.474;2022-10-31T04:04:22;100854.90;;;14.18;83.66
55755;BME280;41674;52.290;-1.474;2022-10-31T04:06:52;100851.21;;;13.31;84.69
55755;BME280;41674;52.290;-1.474;2022-10-31T04:09:28;100845.75;;;13.61;83.72
55755;BME280;41674;52.290;-1.474;2022-10-31T04:11:55;100836.59;;;13.94;83.10
55755;BME280;41674;52.290;-1.474;2022-10-31T04:14:26;100832.71;;;13.74;84.22
55755;BME280;41674;52.290;-1.474;2022-10-31T04:16:53;100831.00;;;13.74;84.05
55755;BME280;41674;52.290;-1.474;2022-10-31T04:19:19;100825.79;;;13.58;84.67
55755;BME280;41674;52.290;-1.474;2022-10-31T04:21:49;100829.90;;;13.62;84.76
55755;BME280;41674;52.290;-1.474;2022-10-31T04:24:18;100829.46;;;13.81;83.60
55755;BME280;41674;52.290;-1.474;2022-10-31T04:26:48;100827.94;;;13.73;84.07
55755;BME280;41674;52.290;-1.474;2022-10-31T04:29:20;100832.89;;;13.09;87.14
55755;BME280;41674;52.290;-1.474;2022-10-31T04:31:51;100842.37;;;12.77;85.69
55755;BME280;41674;52.290;-1.474;2022-10-31T04:34:20;100844.94;;;13.26;85.43
55755;BME280;41674;52.290;-1.474;2022-10-31T04:36:52;100838.67;;;13.48;84.80
55755;BME280;41674;52.290;-1.474;2022-10-31T04:39:18;100833.66;;;13.38;84.46
55755;BME280;41674;52.290;-1.474;2022-10-31T04:41:45;100827.23;;;13.76;83.13
55755;BME280;41674;52.290;-1.474;2022-10-31T04:44:18;100824.11;;;13.89;81.85
55755;BME280;41674;52.290;-1.474;2022-10-31T04:46:44;100828.47;;;13.62;83.21
55755;BME280;41674;52.290;-1.474;2022-10-31T04:49:13;100824.38;;;13.96;81.40
55755;BME280;41674;52.290;-1.474;2022-10-31T04:51:43;100820.75;;;13.58;82.34
55755;BME280;41674;52.290;-1.474;2022-10-31T04:54:15;100827.52;;;13.05;83.95
55755;BME280;41674;52.290;-1.474;2022-10-31T04:56:45;100819.95;;;13.29;83.77
55755;BME280;41674;52.290;-1.474;2022-10-31T04:59:11;100818.53;;;12.40;85.96
55755;BME280;41674;52.290;-1.474;2022-10-31T05:01:44;100816.30;;;13.16;86.00
55755;BME280;41674;52.290;-1.474;2022-10-31T05:04:11;100808.11;;;13.14;84.79
55755;BME280;41674;52.290;-1.474;2022-10-31T05:06:40;100813.03;;;12.39;89.94
55755;BME280;41674;52.290;-1.474;2022-10-31T05:09:10;100808.85;;;12.58;88.95
55755;BME280;41674;52.290;-1.474;2022-10-31T05:11:40;100802.60;;;12.79;88.66
55755;BME280;41674;52.290;-1.474;2022-10-31T05:14:09;100808.07;;;12.12;93.20
55755;BME280;41674;52.290;-1.474;2022-10-31T05:16:38;100806.52;;;12.48;92.34
55755;BME280;41674;52.290;-1.474;2022-10-31T05:19:08;100812.98;;;11.54;95.36
55755;BME280;41674;52.290;-1.474;2022-10-31T05:21:37;100814.32;;;11.08;98.45
55755;BME280;41674;52.290;-1.474;2022-10-31T05:24:07;100822.66;;;11.01;100.00
55755;BME280;41674;52.290;-1.474;2022-10-31T05:26:39;100818.30;;;10.90;100.00
55755;BME280;41674;52.290;-1.474;2022-10-31T05:29:10;100813.32;;;10.64;100.00
55755;BME280;41674;52.290;-1.474;2022-10-31T05:31:38;100811.37;;;11.51;100.00
55755;BME280;41674;52.290;-1.474;2022-10-31T05:34:09;100806.14;;;11.32;100.00
55755;BME280;41674;52.290;-1.474;2022-10-31T05:36:35;100806.00;;;11.01;100.00
55755;BME280;41674;52.290;-1.474;2022-10-31T05:39:07;100810.39;;;11.41;100.00
55755;BME280;41674;52.290;-1.474;2022-10-31T05:41:34;100805.99;;;11.18;100.00
55755;BME280;41674;52.290;-1.474;2022-10-31T05:44:04;100803.76;;;10.63;100.00
55755;BME280;41674;52.290;-1.474;2022-10-31T05:46:33;100789.37;;;11.85;98.85
55755;BME280;41674;52.290;-1.474;2022-10-31T05:49:04;100796.28;;;10.76;100.00
55755;BME280;41674;52.290;-1.474;2022-10-31T05:51:33;100790.32;;;10.80;100.00
55755;BME280;41674;52.290;-1.474;2022-10-31T05:54:02;100789.72;;;10.72;100.00
55755;BME280;41674;52.290;-1.474;2022-10-31T05:56:32;100789.29;;;10.68;100.00
55755;BME280;41674;52.290;-1.474;2022-10-31T05:59:03;100784.25;;;10.99;100.00
55755;BME280;41674;52.290;-1.474;2022-10-31T06:01:38;100789.84;;;10.63;100.00
55755;BME280;41674;52.290;-1.474;2022-10-31T06:04:00;100784.51;;;10.79;100.00
55755;BME280;41674;52.290;-1.474;2022-10-31T06:06:30;100778.12;;;10.66;100.00
55755;BME280;41674;52.290;-1.474;2022-10-31T06:09:00;100768.65;;;12.07;100.00
55755;BME280;41674;52.290;-1.474;2022-10-31T06:11:34;100770.71;;;11.30;100.00
55755;BME280;41674;52.290;-1.474;2022-10-31T06:14:03;100769.89;;;10.64;100.00
55755;BME280;41674;52.290;-1.474;2022-10-31T06:16:34;100764.53;;;11.67;100.00
55755;BME280;41674;52.290;-1.474;2022-10-31T06:19:02;100765.58;;;11.27;100.00
55755;BME280;41674;52.290;-1.474;2022-10-31T06:21:28;100767.08;;;11.14;100.00
55755;BME280;41674;52.290;-1.474;2022-10-31T06:23:57;100764.98;;;11.33;100.00
55755;BME280;41674;52.290;-1.474;2022-10-31T06:26:29;100765.16;;;11.30;100.00
55755;BME280;41674;52.290;-1.474;2022-10-31T06:28:59;100768.94;;;10.70;100.00
55755;BME280;41674;52.290;-1.474;2022-10-31T06:31:30;100768.43;;;10.92;100.00
55755;BME280;41674;52.290;-1.474;2022-10-31T06:33:58;100763.00;;;11.38;100.00
55755;BME280;41674;52.290;-1.474;2022-10-31T06:36:25;100755.97;;;10.92;100.00
55755;BME280;41674;52.290;-1.474;2022-10-31T06:38:54;100751.12;;;10.99;100.00
55755;BME280;41674;52.290;-1.474;2022-10-31T06:41:24;100746.86;;;11.43;100.00
55755;BME280;41674;52.290;-1.474;2022-10-31T06:43:57;100750.18;;;11.10;100.00
55755;BME280;41674;52.290;-1.474;2022-10-31T06:46:23;100750.60;;;11.54;100.00
55755;BME280;41674;52.290;-1.474;2022-10-31T06:48:53;100746.85;;;11.73;100.00
55755;BME280;41674;52.290;-1.474;2022-10-31T06:51:28;100749.31;;;11.70;100.00
55755;BME280;41674;52.290;-1.474;2022-10-31T06:53:52;100746.77;;;11.24;100.00
55755;BME280;41674;52.290;-1.474;2022-10-31T06:56:27;100744.62;;;12.09;100.00
55755;BME280;41674;52.290;-1.474;2022-10-31T06:58:52;100746.25;;;11.77;100.00
55755;BME280;41674;52.290;-1.474;2022-10-31T07:03:57;100746.06;;;11.47;100.00
55755;BME280;41674;52.290;-1.474;2022-10-31T07:06:20;100747.48;;;12.21;98.80
55755;BME280;41674;52.290;-1.474;2022-10-31T07:08:53;100749.40;;;11.82;100.00
55755;BME280;41674;52.290;-1.474;2022-10-31T07:11:22;100746.45;;;12.35;98.09
55755;BME280;41674;52.290;-1.474;2022-10-31T07:13:51;100747.93;;;12.35;97.35
55755;BME280;41674;52.290;-1.474;2022-10-31T07:16:21;100745.18;;;11.80;99.99
55755;BME280;41674;52.290;-1.474;2022-10-31T07:18:48;100745.91;;;12.10;99.19
55755;BME280;41674;52.290;-1.474;2022-10-31T07:21:18;100749.85;;;11.56;100.00
55755;BME280;41674;52.290;-1.474;2022-10-31T07:23:50;100765.28;;;10.16;100.00
55755;BME280;41674;52.290;-1.474;2022-10-31T07:26:16;100760.81;;;11.22;100.00
55755;BME280;41674;52.290;-1.474;2022-10-31T07:28:47;100759.88;;;10.88;100.00
55755;BME280;41674;52.290;-1.474;2022-10-31T07:31:16;100765.47;;;10.32;100.00
55755;BME280;41674;52.290;-1.474;2022-10-31T07:33:45;100761.62;;;11.16;100.00
55755;BME280;41674;52.290;-1.474;2022-10-31T07:36:15;100760.55;;;11.24;100.00
55755;BME280;41674;52.290;-1.474;2022-10-31T07:38:44;100760.69;;;11.21;100.00
55755;BME280;41674;52.290;-1.474;2022-10-31T07:41:21;100767.38;;;11.18;100.00
55755;BME280;41674;52.290;-1.474;2022-10-31T07:43:43;100769.04;;;11.25;100.00
55755;BME280;41674;52.290;-1.474;2022-10-31T07:46:15;100771.76;;;11.78;100.00
55755;BME280;41674;52.290;-1.474;2022-10-31T07:48:42;100771.25;;;11.43;100.00
55755;BME280;41674;52.290;-1.474;2022-10-31T07:51:12;100770.36;;;11.90;100.00
55755;BME280;41674;52.290;-1.474;2022-10-31T07:53:41;100772.24;;;12.80;99.23
55755;BME280;41674;52.290;-1.474;2022-10-31T07:56:11;100771.79;;;12.37;100.00
55755;BME280;41674;52.290;-1.474;2022-10-31T07:58:40;100771.29;;;11.76;100.00
55755;BME280;41674;52.290;-1.474;2022-10-31T08:01:10;100768.56;;;12.20;100.00
55755;BME280;41674;52.290;-1.474;2022-10-31T08:03:39;100768.40;;;12.42;100.00
55755;BME280;41674;52.290;-1.474;2022-10-31T08:06:09;100768.93;;;12.00;100.00
55755;BME280;41674;52.290;-1.474;2022-10-31T08:08:38;100774.05;;;12.75;100.00
55755;BME280;41674;52.290;-1.474;2022-10-31T08:11:08;100773.91;;;12.10;100.00
55755;BME280;41674;52.290;-1.474;2022-10-31T08:13:37;100769.65;;;12.23;100.00
55755;BME280;41674;52.290;-1.474;2022-10-31T08:16:12;100761.10;;;12.05;100.00
55755;BME280;41674;52.290;-1.474;2022-10-31T08:18:37;100766.76;;;11.16;100.00
55755;BME280;41674;52.290;-1.474;2022-10-31T08:21:06;100770.56;;;10.75;100.00
55755;BME280;41674;52.290;-1.474;2022-10-31T08:23:37;100770.23;;;11.14;100.00
55755;BME280;41674;52.290;-1.474;2022-10-31T08:26:05;100762.74;;;12.19;100.00
55755;BME280;41674;52.290;-1.474;2022-10-31T08:28:35;100766.84;;;12.85;100.00
55755;BME280;41674;52.290;-1.474;2022-10-31T08:31:13;100765.77;;;12.91;100.00
55755;BME280;41674;52.290;-1.474;2022-10-31T08:33:39;100773.65;;;12.53;100.00
55755;BME280;41674;52.290;-1.474;2022-10-31T08:36:07;100776.20;;;12.50;100.00
55755;BME280;41674;52.290;-1.474;2022-10-31T08:38:33;100769.48;;;11.47;100.00
55755;BME280;41674;52.290;-1.474;2022-10-31T08:41:02;100773.70;;;11.77;100.00
55755;BME280;41674;52.290;-1.474;2022-10-31T08:43:42;100772.56;;;11.91;100.00
55755;BME280;41674;52.290;-1.474;2022-10-31T08:46:01;100775.82;;;11.74;100.00
55755;BME280;41674;52.290;-1.474;2022-10-31T08:48:31;100774.32;;;11.91;100.00
55755;BME280;41674;52.290;-1.474;2022-10-31T08:51:01;100770.90;;;12.23;100.00
55755;BME280;41674;52.290;-1.474;2022-10-31T08:53:31;100774.09;;;11.73;100.00
55755;BME280;41674;52.290;-1.474;2022-10-31T08:56:00;100770.16;;;12.50;100.00
55755;BME280;41674;52.290;-1.474;2022-10-31T08:58:29;100771.28;;;13.02;100.00
55755;BME280;41674;52.290;-1.474;2022-10-31T09:01:00;100767.27;;;12.41;100.00
55755;BME280;41674;52.290;-1.474;2022-10-31T09:03:30;100763.99;;;12.52;100.00
55755;BME280;41674;52.290;-1.474;2022-10-31T09:06:01;100759.78;;;12.13;100.00
55755;BME280;41674;52.290;-1.474;2022-10-31T09:08:30;100754.71;;;12.16;100.00
55755;BME280;41674;52.290;-1.474;2022-10-31T09:10:58;100751.83;;;12.81;100.00
55755;BME280;41674;52.290;-1.474;2022-10-31T09:13:27;100752.44;;;12.48;100.00
55755;BME280;41674;52.290;-1.474;2022-10-31T09:15:57;100747.96;;;12.65;100.00
55755;BME280;41674;52.290;-1.474;2022-10-31T09:18:26;100740.54;;;13.15;100.00
55755;BME280;41674;52.290;-1.474;2022-10-31T09:20:57;100743.76;;;12.57;100.00
55755;BME280;41674;52.290;-1.474;2022-10-31T09:23:25;100744.53;;;12.66;100.00
55755;BME280;41674;52.290;-1.474;2022-10-31T09:25:55;100740.60;;;12.34;100.00
55755;BME280;41674;52.290;-1.474;2022-10-31T09:28:24;100737.65;;;13.00;100.00
55755;BME280;41674;52.290;-1.474;2022-10-31T09:30:54;100735.47;;;13.37;100.00
55755;BME280;41674;52.290;-1.474;2022-10-31T09:33:26;100733.77;;;13.83;100.00
55755;BME280;41674;52.290;-1.474;2022-10-31T09:35:54;100729.30;;;13.79;99.45
55755;BME280;41674;52.290;-1.474;2022-10-31T09:38:22;100725.04;;;13.29;100.00
55755;BME280;41674;52.290;-1.474;2022-10-31T09:41:01;100719.83;;;13.48;100.00
55755;BME280;41674;52.290;-1.474;2022-10-31T09:43:27;100724.16;;;12.50;100.00
55755;BME280;41674;52.290;-1.474;2022-10-31T09:45:58;100714.69;;;13.10;100.00
55755;BME280;41674;52.290;-1.474;2022-10-31T09:48:32;100715.39;;;13.31;100.00
55755;BME280;41674;52.290;-1.474;2022-10-31T09:50:54;100710.28;;;13.18;100.00
55755;BME280;41674;52.290;-1.474;2022-10-31T09:53:29;100709.58;;;13.21;100.00
55755;BME280;41674;52.290;-1.474;2022-10-31T09:55:51;100710.85;;;13.03;100.00
55755;BME280;41674;52.290;-1.474;2022-10-31T09:58:22;100698.08;;;12.99;100.00
55755;BME280;41674;52.290;-1.474;2022-10-31T10:00:49;100696.21;;;13.60;100.00
55755;BME280;41674;52.290;-1.474;2022-10-31T10:03:28;100701.61;;;14.16;98.33
55755;BME280;41674;52.290;-1.474;2022-10-31T10:05:53;100703.39;;;12.72;100.00
55755;BME280;41674;52.290;-1.474;2022-10-31T10:08:19;100698.05;;;13.14;100.00
55755;BME280;41674;52.290;-1.474;2022-10-31T10:13:32;100696.14;;;13.38;99.44
55755;BME280;41674;52.290;-1.474;2022-10-31T10:16:00;100696.13;;;13.98;97.41
55755;BME280;41674;52.290;-1.474;2022-10-31T10:18:25;100694.64;;;14.59;95.68
55755;BME280;41674;52.290;-1.474;2022-10-31T10:20:55;100693.28;;;13.65;99.69
55755;BME280;41674;52.290;-1.474;2022-10-31T10:23:29;100690.71;;;13.50;100.00
55755;BME280;41674;52.290;-1.474;2022-10-31T10:25:46;100687.55;;;13.12;99.95
55755;BME280;41674;52.290;-1.474;2022-10-31T10:28:20;100693.57;;;13.46;98.84
55755;BME280;41674;52.290;-1.474;2022-10-31T10:30:47;100695.92;;;13.42;99.43
55755;BME280;41674;52.290;-1.474;2022-10-31T10:33:15;100692.14;;;13.43;99.88
55755;BME280;41674;52.290;-1.474;2022-10-31T10:35:46;100687.51;;;14.25;95.06
55755;BME280;41674;52.290;-1.474;2022-10-31T10:38:17;100682.21;;;15.00;93.86
55755;BME280;41674;52.290;-1.474;2022-10-31T10:40:42;100675.53;;;13.52;97.29
55755;BME280;41674;52.290;-1.474;2022-10-31T10:43:20;100671.69;;;14.40;93.41
55755;BME280;41674;52.290;-1.474;2022-10-31T10:45:42;100670.79;;;14.94;91.99
55755;BME280;41674;52.290;-1.474;2022-10-31T10:48:16;100668.29;;;14.77;90.19
55755;BME280;41674;52.290;-1.474;2022-10-31T10:50:43;100663.14;;;14.78;90.62
55755;BME280;41674;52.290;-1.474;2022-10-31T10:53:21;100662.54;;;14.67;90.02
55755;BME280;41674;52.290;-1.474;2022-10-31T10:55:43;100655.36;;;14.82;90.73
55755;BME280;41674;52.290;-1.474;2022-10-31T10:58:09;100647.22;;;15.85;86.75
55755;BME280;41674;52.290;-1.474;2022-10-31T11:00:48;100652.56;;;14.85;90.15
55755;BME280;41674;52.290;-1.474;2022-10-31T11:03:13;100650.30;;;14.86;91.20
55755;BME280;41674;52.290;-1.474;2022-10-31T11:05:40;100645.40;;;14.96;90.84
55755;BME280;41674;52.290;-1.474;2022-10-31T11:08:07;100646.09;;;15.26;87.61
55755;BME280;41674;52.290;-1.474;2022-10-31T11:15:48;100638.66;;;15.48;87.80
55755;BME280;41674;52.290;-1.474;2022-10-31T11:18:05;100637.55;;;16.07;85.87
55755;BME280;41674;52.290;-1.474;2022-10-31T11:20:35;100637.71;;;14.11;92.64
55755;BME280;41674;52.290;-1.474;2022-10-31T11:25:33;100619.76;;;15.61;88.64
55755;BME280;41674;52.290;-1.474;2022-10-31T11:28:04;100611.65;;;15.19;86.79
55755;BME280;41674;52.290;-1.474;2022-10-31T11:33:02;100602.92;;;14.79;88.91
55755;BME280;41674;52.290;-1.474;2022-10-31T11:35:31;100598.40;;;15.17;89.51
55755;BME280;41674;52.290;-1.474;2022-10-31T11:38:04;100594.81;;;15.75;87.72
55755;BME280;41674;52.290;-1.474;2022-10-31T11:40:30;100592.80;;;15.10;85.64
55755;BME280;41674;52.290;-1.474;2022-10-31T11:42:59;100593.42;;;15.62;85.05
55755;BME280;41674;52.290;-1.474;2022-10-31T11:45:32;100587.71;;;15.91;84.95
55755;BME280;41674;52.290;-1.474;2022-10-31T11:48:00;100576.54;;;14.78;88.98
55755;BME280;41674;52.290;-1.474;2022-10-31T11:50:32;100574.15;;;15.37;86.20
55755;BME280;41674;52.290;-1.474;2022-10-31T11:52:58;100572.47;;;14.65;88.36
55755;BME280;41674;52.290;-1.474;2022-10-31T11:55:32;100563.35;;;14.68;90.34
55755;BME280;41674;52.290;-1.474;2022-10-31T11:57:56;100560.80;;;15.49;86.61
55755;BME280;41674;52.290;-1.474;2022-10-31T12:00:32;100555.88;;;15.50;86.77
55755;BME280;41674;52.290;-1.474;2022-10-31T12:03:12;100553.90;;;16.23;84.79
55755;BME280;41674;52.290;-1.474;2022-10-31T12:05:27;100551.81;;;15.59;83.92
55755;BME280;41674;52.290;-1.474;2022-10-31T12:07:55;100550.22;;;15.26;86.38
55755;BME280;41674;52.290;-1.474;2022-10-31T12:10:30;100544.67;;;15.16;86.07
55755;BME280;41674;52.290;-1.474;2022-10-31T12:13:02;100539.73;;;15.46;85.29
55755;BME280;41674;52.290;-1.474;2022-10-31T12:15:31;100535.18;;;15.62;81.89
55755;BME280;41674;52.290;-1.474;2022-10-31T12:18:02;100535.25;;;15.74;83.92
55755;BME280;41674;52.290;-1.474;2022-10-31T12:20:29;100522.93;;;15.78;83.03
55755;BME280;41674;52.290;-1.474;2022-10-31T12:22:58;100525.54;;;15.46;85.24
55755;BME280;41674;52.290;-1.474;2022-10-31T12:25:31;100515.64;;;15.69;83.64
55755;BME280;41674;52.290;-1.474;2022-10-31T12:28:03;100506.53;;;15.98;82.00
55755;BME280;41674;52.290;-1.474;2022-10-31T12:35:30;100502.81;;;16.18;84.95
55755;BME280;41674;52.290;-1.474;2022-10-31T12:38:03;100495.24;;;16.30;84.18
55755;BME280;41674;52.290;-1.474;2022-10-31T12:40:31;100492.16;;;16.09;82.64
55755;BME280;41674;52.290;-1.474;2022-10-31T12:42:58;100489.67;;;16.09;81.48
55755;BME280;41674;52.290;-1.474;2022-10-31T12:45:35;100482.21;;;15.96;80.35
55755;BME280;41674;52.290;-1.474;2022-10-31T12:48:00;100471.62;;;16.89;77.76
55755;BME280;41674;52.290;-1.474;2022-10-31T12:50:26;100461.85;;;17.81;75.52
55755;BME280;41674;52.290;-1.474;2022-10-31T12:52:56;100458.23;;;17.37;73.39
55755;BME280;41674;52.290;-1.474;2022-10-31T12:55:28;100450.11;;;18.55;69.95
55755;BME280;41674;52.290;-1.474;2022-10-31T12:57:48;100447.28;;;18.71;67.73
55755;BME280;41674;52.290;-1.474;2022-10-31T13:00:17;100447.65;;;17.42;71.41
55755;BME280;41674;52.290;-1.474;2022-10-31T13:02:50;100445.67;;;17.65;71.08
55755;BME280;41674;52.290;-1.474;2022-10-31T13:05:18;100438.11;;;17.47;72.09
55755;BME280;41674;52.290;-1.474;2022-10-31T13:07:48;100428.46;;;18.38;69.77
55755;BME280;41674;52.290;-1.474;2022-10-31T13:10:17;100421.12;;;18.14;71.30
55755;BME280;41674;52.290;-1.474;2022-10-31T13:12:43;100423.91;;;17.08;72.68
55755;BME280;41674;52.290;-1.474;2022-10-31T13:15:17;100409.55;;;18.17;71.17
55755;BME280;41674;52.290;-1.474;2022-10-31T13:17:44;100406.60;;;17.57;70.96
55755;BME280;41674;52.290;-1.474;2022-10-31T13:20:19;100397.56;;;18.01;70.41
55755;BME280;41674;52.290;-1.474;2022-10-31T13:22:45;100396.81;;;17.26;72.50
55755;BME280;41674;52.290;-1.474;2022-10-31T13:25:14;100392.58;;;16.87;73.96
55755;BME280;41674;52.290;-1.474;2022-10-31T13:27:45;100393.82;;;16.42;76.23
55755;BME280;41674;52.290;-1.474;2022-10-31T13:30:14;100392.52;;;16.51;74.21
55755;BME280;41674;52.290;-1.474;2022-10-31T13:32:42;100387.72;;;16.96;73.46
55755;BME280;41674;52.290;-1.474;2022-10-31T13:35:26;100374.58;;;15.35;79.57
55755;BME280;41674;52.290;-1.474;2022-10-31T13:37:40;100368.41;;;16.12;77.87
55755;BME280;41674;52.290;-1.474;2022-10-31T13:40:14;100360.16;;;17.18;74.25
55755;BME280;41674;52.290;-1.474;2022-10-31T13:45:12;100354.67;;;16.87;72.77
55755;BME280;41674;52.290;-1.474;2022-10-31T13:47:36;100349.81;;;17.67;71.68
55755;BME280;41674;52.290;-1.474;2022-10-31T13:50:20;100359.45;;;16.46;74.46
55755;BME280;41674;52.290;-1.474;2022-10-31T13:52:35;100358.32;;;16.75;73.24
55755;BME280;41674;52.290;-1.474;2022-10-31T13:57:38;100334.74;;;18.11;68.50
55755;BME280;41674;52.290;-1.474;2022-10-31T14:00:12;100328.78;;;18.08;68.36
55755;BME280;41674;52.290;-1.474;2022-10-31T14:02:35;100324.47;;;19.40;64.94
55755;BME280;41674;52.290;-1.474;2022-10-31T14:05:06;100310.50;;;18.99;63.98
55755;BME280;41674;52.290;-1.474;2022-10-31T14:07:32;100308.93;;;17.85;67.26
55755;BME280;41674;52.290;-1.474;2022-10-31T14:10:05;100309.24;;;17.86;66.72
55755;BME280;41674;52.290;-1.474;2022-10-31T14:12:34;100303.60;;;18.18;67.18
55755;BME280;41674;52.290;-1.474;2022-10-31T14:15:12;100299.79;;;18.36;66.11
55755;BME280;41674;52.290;-1.474;2022-10-31T14:17:36;100298.61;;;18.21;65.45
55755;BME280;41674;52.290;-1.474;2022-10-31T14:22:31;100290.94;;;19.25;62.67
55755;BME280;41674;52.290;-1.474;2022-10-31T14:24:59;100285.17;;;20.31;61.82
55755;BME280;41674;52.290;-1.474;2022-10-31T14:27:44;100290.87;;;17.86;67.78
55755;BME280;41674;52.290;-1.474;2022-10-31T14:30:12;100290.04;;;17.95;66.45
55755;BME280;41674;52.290;-1.474;2022-10-31T14:32:27;100282.31;;;18.55;65.68
55755;BME280;41674;52.290;-1.474;2022-10-31T14:35:02;100278.78;;;19.03;64.55
55755;BME280;41674;52.290;-1.474;2022-10-31T14:37:42;100271.43;;;18.12;65.12
55755;BME280;41674;52.290;-1.474;2022-10-31T14:40:07;100269.97;;;16.94;69.31
55755;BME280;41674;52.290;-1.474;2022-10-31T14:42:44;100265.48;;;16.71;71.84
55755;BME280;41674;52.290;-1.474;2022-10-31T14:45:08;100254.45;;;17.08;70.07
55755;BME280;41674;52.290;-1.474;2022-10-31T14:47:33;100244.97;;;16.69;70.43
55755;BME280;41674;52.290;-1.474;2022-10-31T14:52:23;100248.73;;;15.61;76.24
55755;BME280;41674;52.290;-1.474;2022-10-31T14:54:55;100245.20;;;15.54;76.17
55755;BME280;41674;52.290;-1.474;2022-10-31T14:57:27;100244.81;;;15.50;77.23
55755;BME280;41674;52.290;-1.474;2022-10-31T14:59:55;100239.59;;;15.81;77.50
55755;BME280;41674;52.290;-1.474;2022-10-31T15:02:25;100234.72;;;15.19;77.84
55755;BME280;41674;52.290;-1.474;2022-10-31T15:04:52;100232.25;;;15.80;76.89
55755;BME280;41674;52.290;-1.474;2022-10-31T15:07:23;100226.21;;;15.61;77.84
55755;BME280;41674;52.290;-1.474;2022-10-31T15:09:56;100215.30;;;15.89;75.96
55755;BME280;41674;52.290;-1.474;2022-10-31T15:12:24;100208.59;;;16.89;73.25
55755;BME280;41674;52.290;-1.474;2022-10-31T15:14:50;100209.36;;;16.10;75.32
55755;BME280;41674;52.290;-1.474;2022-10-31T15:17:20;100202.66;;;15.90;75.79
55755;BME280;41674;52.290;-1.474;2022-10-31T15:19:49;100197.08;;;15.90;76.26
55755;BME280;41674;52.290;-1.474;2022-10-31T15:22:20;100194.01;;;15.24;78.53
55755;BME280;41674;52.290;-1.474;2022-10-31T15:24:48;100178.99;;;16.20;75.23
55755;BME280;41674;52.290;-1.474;2022-10-31T15:27:17;100181.24;;;14.59;82.74
55755;BME280;41674;52.290;-1.474;2022-10-31T15:29:54;100178.89;;;15.17;81.08
55755;BME280;41674;52.290;-1.474;2022-10-31T15:32:20;100171.35;;;13.71;86.61
55755;BME280;41674;52.290;-1.474;2022-10-31T15:34:46;100158.73;;;14.10;84.62
55755;BME280;41674;52.290;-1.474;2022-10-31T15:37:17;100142.49;;;13.76;85.27
55755;BME280;41674;52.290;-1.474;2022-10-31T15:39:46;100140.02;;;13.51;88.33
55755;BME280;41674;52.290;-1.474;2022-10-31T15:42:19;100138.92;;;13.74;86.20
55755;BME280;41674;52.290;-1.474;2022-10-31T15:44:44;100128.71;;;14.67;83.37
55755;BME280;41674;52.290;-1.474;2022-10-31T15:47:16;100118.04;;;14.58;83.55
55755;BME280;41674;52.290;-1.474;2022-10-31T15:49:48;100111.65;;;15.13;80.56
55755;BME280;41674;52.290;-1.474;2022-10-31T15:52:18;100116.28;;;15.02;82.05
55755;BME280;41674;52.290;-1.474;2022-10-31T15:54:46;100097.64;;;15.74;79.51
55755;BME280;41674;52.290;-1.474;2022-10-31T15:57:11;100102.22;;;14.35;84.35